ニューヨーク/JFK の空港の天気 - METARとTAF

ジョン・F・ケネディ国際空港 ( KJFK / JFK ) - アメリカ ニューヨーク州ニューヨーク
飛行場実況気象(Metar)
観測時間02/23 06:51 EST (02/23 11:51 UTC)
風向・風速東北東 5m/s
視程10km以上
天気現象
全天の8割程度の雲 雲底高度 550m
全天を覆う雲 雲底高度 1370m
気温2.2℃
湿度82%
気圧1037.8hPa
METARKJFK 231151Z 06010KT 10SM BKN018 OVC045 02/M01 A3065 RMK AO2 SLP378 70011 T00221006 10028 20022 57003
過去の天気等 Google飛行場航空写真 Wunderground天気予報

過去48時間のMETAR

飛行場予報(TAF)
発表時間: 2/23 07:47 EST (2/23 12:47 UTC)
予報対象時間: 23日8時 EST ~ 24日13時 EST
風向・風速東北東 5m/s
視程10km以上
全天の8割程度の雲 雲底高度 460m
全天を覆う雲 雲底高度 1,220m
23日10時 EST から
風向・風速東 5m/s
視程10km以上
天気現象周辺でしゅう雨
全天を覆う雲 雲底高度 370m
23日13時 EST から
風向・風速東南東 6m/s
視程10km以上
天気現象弱い雨
全天を覆う雲 雲底高度 240m
23日16時 EST から
風向・風速南東 4m/s
視程4,830m
天気現象弱い雨 もや
全天を覆う雲 雲底高度 180m
23日21時 EST から
風向・風速南西 3m/s
視程3,220m
天気現象弱い雨 もや
全天を覆う雲 雲底高度 150m
24日2時 EST から
風向・風速西 4m/s
視程8,050m
天気現象もや
全天を覆う雲 雲底高度 210m
24日5時 EST から
風向・風速西 4m/s
視程10km以上
全天を覆う雲 雲底高度 370m
24日8時 EST から
風向・風速北西 4m/s
視程10km以上
少しの雲 雲底高度 610m
全天の8割程度の雲 雲底高度 3,050m
KJFK 231247Z 2313/2418 07010KT P6SM BKN015 OVC040
FM231500 09010KT P6SM VCSH OVC012
FM231800 11011KT 6SM -RA OVC008
FM232100 13008KT 3SM -RA BR OVC006
FM240200 22005KT 2SM -RA BR OVC005 WS020/27035KT
FM240700 26007KT 5SM BR OVC007
FM241000 27007KT P6SM OVC012
FM241300 32008KT P6SM FEW020 BKN100